createdAt,value
2019-03-24T00:02:15.758Z,5.10
2019-03-24T00:04:47.262Z,5.10
2019-03-24T00:07:18.759Z,5.10
2019-03-24T00:09:50.250Z,5.10
2019-03-24T00:12:22.122Z,5.10
2019-03-24T00:14:53.622Z,5.10
2019-03-24T00:17:25.518Z,5.00
2019-03-24T00:19:57.018Z,5.00
2019-03-24T00:22:28.550Z,4.90
2019-03-24T00:25:00.465Z,4.90
2019-03-24T00:27:33.074Z,4.90
2019-03-24T00:30:04.686Z,4.90
2019-03-24T00:32:36.201Z,4.90
2019-03-24T00:35:08.144Z,5.00
2019-03-24T00:37:40.063Z,5.00
2019-03-24T00:40:11.558Z,5.00
2019-03-24T00:42:43.097Z,4.90
2019-03-24T00:45:14.629Z,4.80
2019-03-24T00:47:46.134Z,4.80
2019-03-24T00:50:17.767Z,4.80
2019-03-24T00:52:49.286Z,4.80
2019-03-24T00:55:20.862Z,4.70
2019-03-24T00:57:52.361Z,4.70
2019-03-24T01:02:58.172Z,4.60
2019-03-24T01:05:29.673Z,4.50
2019-03-24T01:08:01.238Z,4.40
2019-03-24T01:10:32.829Z,4.40
2019-03-24T01:13:04.322Z,4.30
2019-03-24T01:15:35.822Z,4.40
2019-03-24T01:18:07.353Z,4.50
2019-03-24T01:20:38.842Z,4.50
2019-03-24T01:23:10.445Z,4.50
2019-03-24T01:25:41.934Z,4.50
2019-03-24T01:28:13.461Z,4.60
2019-03-24T01:30:45.055Z,4.50
2019-03-24T01:33:16.541Z,4.50
2019-03-24T01:35:48.062Z,4.40
2019-03-24T01:38:19.558Z,4.40
2019-03-24T01:40:51.049Z,4.40
2019-03-24T01:43:22.545Z,4.40
2019-03-24T01:45:58.598Z,4.50
2019-03-24T01:48:27.176Z,4.40
2019-03-24T01:50:58.665Z,4.40
2019-03-24T01:53:30.169Z,4.30
2019-03-24T01:56:01.678Z,4.20
2019-03-24T01:58:33.174Z,4.10
2019-03-24T02:01:04.702Z,4.00
2019-03-24T02:03:36.197Z,3.90
2019-03-24T02:06:07.722Z,3.80
2019-03-24T02:08:39.606Z,3.80
2019-03-24T02:11:11.064Z,3.80
2019-03-24T02:13:42.557Z,3.80
2019-03-24T02:16:14.058Z,3.70
2019-03-24T02:18:45.584Z,3.70
2019-03-24T02:21:17.145Z,3.60
2019-03-24T02:23:48.646Z,3.60
2019-03-24T02:26:20.142Z,3.70
2019-03-24T02:31:23.106Z,3.60
2019-03-24T02:33:54.635Z,3.60
2019-03-24T02:38:56.547Z,3.60
2019-03-24T02:41:28.046Z,3.60
2019-03-24T02:43:59.570Z,3.50
2019-03-24T02:46:31.074Z,3.60
2019-03-24T02:49:02.635Z,3.60
2019-03-24T02:51:34.144Z,3.60
2019-03-24T02:54:05.787Z,3.60
2019-03-24T02:56:37.418Z,3.60
2019-03-24T02:59:08.950Z,3.60
2019-03-24T03:01:40.758Z,3.50
2019-03-24T03:04:12.751Z,3.40
2019-03-24T03:06:44.246Z,3.40
2019-03-24T03:11:46.602Z,3.40
2019-03-24T03:14:18.130Z,3.40
2019-03-24T03:16:49.699Z,3.50
2019-03-24T03:19:21.208Z,3.50
2019-03-24T03:21:53.179Z,3.50
2019-03-24T03:24:24.689Z,3.50
2019-03-24T03:26:56.200Z,3.50
2019-03-24T03:31:58.574Z,3.50
2019-03-24T03:34:30.152Z,3.60
2019-03-24T03:37:01.725Z,3.60
2019-03-24T03:39:33.242Z,3.60
2019-03-24T03:42:04.978Z,3.60
2019-03-24T03:44:36.542Z,3.50
2019-03-24T03:47:08.056Z,3.40
2019-03-24T03:49:39.977Z,3.40
2019-03-24T03:52:11.487Z,3.40
2019-03-24T03:54:43.047Z,3.30
2019-03-24T03:57:14.571Z,3.30
2019-03-24T03:59:46.058Z,3.30
2019-03-24T04:02:18.039Z,3.20
2019-03-24T04:04:49.530Z,3.20
2019-03-24T04:07:21.055Z,3.20
2019-03-24T04:09:53.620Z,3.10
2019-03-24T04:12:25.222Z,3.10
2019-03-24T04:14:56.732Z,3.10
2019-03-24T04:17:28.647Z,3.00
2019-03-24T04:20:00.472Z,3.00
2019-03-24T04:22:32.331Z,2.90
2019-03-24T04:25:04.164Z,2.90
2019-03-24T04:27:35.665Z,2.80
2019-03-24T04:30:08.879Z,2.70
2019-03-24T04:32:40.370Z,2.60
2019-03-24T04:35:11.899Z,2.60
2019-03-24T04:37:43.404Z,2.60
2019-03-24T04:40:14.914Z,2.60
2019-03-24T04:42:46.442Z,2.60
2019-03-24T04:45:18.151Z,2.60
2019-03-24T04:47:49.717Z,2.60
2019-03-24T04:50:21.221Z,2.60
2019-03-24T04:55:23.090Z,2.70
2019-03-24T04:57:54.646Z,2.60
2019-03-24T05:00:36.790Z,2.70
2019-03-24T05:03:08.314Z,2.70
2019-03-24T05:05:41.070Z,2.80
2019-03-24T05:08:14.509Z,2.80
2019-03-24T05:10:46.002Z,2.90
2019-03-24T05:13:18.574Z,2.90
2019-03-24T05:15:50.065Z,2.90
2019-03-24T05:18:21.563Z,2.90
2019-03-24T05:20:53.065Z,3.00
2019-03-24T05:23:24.594Z,3.10
2019-03-24T05:25:56.090Z,3.20
2019-03-24T05:28:27.590Z,3.30
2019-03-24T05:30:59.082Z,3.30
2019-03-24T05:36:01.329Z,3.50
2019-03-24T05:38:32.978Z,3.70
2019-03-24T05:41:04.465Z,3.90
2019-03-24T05:43:35.990Z,4.00
2019-03-24T05:46:07.930Z,4.20
2019-03-24T05:48:39.362Z,4.30
2019-03-24T05:51:10.877Z,4.50
2019-03-24T05:53:42.370Z,4.70
2019-03-24T05:56:14.634Z,5.00
2019-03-24T05:58:48.394Z,5.20
2019-03-24T06:01:21.003Z,5.50
2019-03-24T06:03:53.559Z,5.90
2019-03-24T06:06:25.086Z,6.10
2019-03-24T06:08:56.589Z,6.30
2019-03-24T06:11:28.094Z,6.50
2019-03-24T06:13:59.602Z,6.80
2019-03-24T06:19:01.842Z,7.20
2019-03-24T06:21:33.330Z,7.40
2019-03-24T06:24:04.839Z,7.70
2019-03-24T06:26:36.331Z,8.50
2019-03-24T06:29:07.830Z,9.00
2019-03-24T06:31:39.327Z,9.30
2019-03-24T06:36:44.450Z,10.20
2019-03-24T06:39:16.102Z,10.50
2019-03-24T06:41:47.786Z,10.90
2019-03-24T06:44:19.330Z,11.30
2019-03-24T06:46:58.174Z,11.90
2019-03-24T06:49:35.478Z,12.50
2019-03-24T06:52:07.470Z,13.00
2019-03-24T06:54:39.029Z,13.70
2019-03-24T06:57:10.581Z,14.30
2019-03-24T06:59:42.361Z,15.10
2019-03-24T07:02:13.866Z,15.60
2019-03-24T07:04:45.366Z,15.90
2019-03-24T07:07:16.822Z,16.50
2019-03-24T07:09:48.322Z,17.20
2019-03-24T07:12:19.809Z,17.30
2019-03-24T07:14:51.337Z,17.20
2019-03-24T07:19:53.434Z,18.20
2019-03-24T07:22:24.946Z,18.50
2019-03-24T07:24:56.446Z,18.90
2019-03-24T07:27:29.542Z,19.10
2019-03-24T07:30:01.082Z,18.50
2019-03-24T07:32:32.750Z,19.00
2019-03-24T07:35:04.266Z,19.80
2019-03-24T07:37:37.141Z,20.80
2019-03-24T07:40:10.033Z,21.20
2019-03-24T07:42:41.635Z,21.90
2019-03-24T07:45:14.110Z,21.70
2019-03-24T07:47:46.263Z,22.00
2019-03-24T07:50:17.850Z,21.40
2019-03-24T07:52:50.029Z,21.60
2019-03-24T07:55:21.522Z,21.90
2019-03-24T07:57:53.846Z,23.40
2019-03-24T08:00:39.154Z,24.10
2019-03-24T08:03:11.462Z,24.40
2019-03-24T08:05:43.208Z,25.40
2019-03-24T08:08:15.309Z,25.20
2019-03-24T08:10:47.313Z,24.50
2019-03-24T08:13:19.658Z,25.10
2019-03-24T08:15:52.022Z,25.40
2019-03-24T08:18:29.948Z,25.90
2019-03-24T08:20:57.962Z,27.70
2019-03-24T08:23:30.295Z,27.80
2019-03-24T08:26:02.604Z,27.70
2019-03-24T08:28:34.890Z,27.30
2019-03-24T08:33:40.041Z,26.90
2019-03-24T08:36:12.295Z,27.70
2019-03-24T08:38:44.918Z,27.10
2019-03-24T08:41:17.255Z,27.10
2019-03-24T08:43:49.645Z,28.00
2019-03-24T08:46:22.277Z,27.70
2019-03-24T08:48:54.490Z,26.60
2019-03-24T08:51:26.570Z,26.10
2019-03-24T08:53:59.163Z,24.20
2019-03-24T08:56:31.448Z,23.30
2019-03-24T08:59:04.645Z,23.80
2019-03-24T09:01:40.722Z,23.30
2019-03-24T09:04:13.117Z,22.20
2019-03-24T09:06:44.884Z,22.00
2019-03-24T09:09:16.630Z,23.10
2019-03-24T09:14:30.140Z,22.30
2019-03-24T09:19:32.721Z,27.10
2019-03-24T09:22:04.935Z,29.60
2019-03-24T09:24:37.247Z,30.00
2019-03-24T09:27:09.473Z,31.10
2019-03-24T09:29:41.771Z,32.40
2019-03-24T09:32:14.031Z,34.10
2019-03-24T09:34:46.338Z,34.90
2019-03-24T09:37:18.582Z,34.20
2019-03-24T09:39:51.690Z,32.80
2019-03-24T09:42:23.730Z,32.10
2019-03-24T09:44:55.714Z,31.80
2019-03-24T09:47:27.762Z,29.00
2019-03-24T09:49:59.957Z,27.90
2019-03-24T09:52:32.455Z,28.70
2019-03-24T09:55:05.082Z,29.40
2019-03-24T10:00:08.490Z,29.40
2019-03-24T10:02:40.787Z,30.70
2019-03-24T10:05:13.274Z,32.10
2019-03-24T10:07:45.352Z,33.10
2019-03-24T10:12:48.398Z,32.20
2019-03-24T10:15:20.510Z,30.50
2019-03-24T10:20:24.427Z,30.10
2019-03-24T10:25:28.794Z,32.50
2019-03-24T10:28:01.646Z,33.50
2019-03-24T10:30:33.944Z,34.20
2019-03-24T10:33:06.266Z,33.00
2019-03-24T10:38:09.997Z,32.70
2019-03-24T10:40:42.301Z,33.30
2019-03-24T10:43:14.543Z,33.90
2019-03-24T10:45:46.718Z,33.80
2019-03-24T10:48:19.091Z,33.50
2019-03-24T10:50:51.354Z,32.90
2019-03-24T10:53:23.635Z,33.60
2019-03-24T10:55:55.894Z,35.90
2019-03-24T10:58:28.390Z,38.20
2019-03-24T11:01:00.162Z,38.00
2019-03-24T11:03:32.234Z,36.80
2019-03-24T11:06:04.261Z,36.50
2019-03-24T11:08:36.226Z,38.20
2019-03-24T11:11:08.946Z,38.20
2019-03-24T11:13:41.194Z,38.50
2019-03-24T11:16:13.542Z,39.20
2019-03-24T11:18:48.330Z,39.20
2019-03-24T11:21:20.606Z,39.10
2019-03-24T11:23:52.772Z,39.40
2019-03-24T11:26:24.781Z,39.60
2019-03-24T11:28:56.573Z,38.90
2019-03-24T11:31:28.258Z,39.10
2019-03-24T11:34:00.370Z,39.00
2019-03-24T11:36:32.066Z,36.80
2019-03-24T11:39:05.474Z,37.90
2019-03-24T11:41:37.298Z,38.60
2019-03-24T11:44:09.021Z,39.10
2019-03-24T11:46:42.617Z,37.70
2019-03-24T11:49:21.106Z,36.50
2019-03-24T11:51:53.126Z,37.70
2019-03-24T11:56:55.486Z,37.20
2019-03-24T12:01:59.014Z,34.30
2019-03-24T12:04:32.263Z,34.60
2019-03-24T12:07:04.221Z,36.10
2019-03-24T12:09:36.237Z,35.50
2019-03-24T12:12:08.243Z,34.30
2019-03-24T12:17:11.250Z,34.70
2019-03-24T12:19:43.543Z,34.40
2019-03-24T12:22:15.790Z,35.00
2019-03-24T12:24:47.914Z,33.80
2019-03-24T12:27:20.800Z,33.70
2019-03-24T12:29:52.969Z,35.20
2019-03-24T12:34:55.660Z,38.60
2019-03-24T12:37:27.515Z,38.40
2019-03-24T12:39:59.279Z,37.70
2019-03-24T12:42:31.053Z,36.10
2019-03-24T12:45:02.778Z,37.10
2019-03-24T12:47:34.542Z,37.70
2019-03-24T12:50:09.095Z,37.20
2019-03-24T12:52:40.125Z,35.70
2019-03-24T12:55:12.277Z,34.90
2019-03-24T12:57:44.364Z,32.90
2019-03-24T13:00:29.151Z,33.20
2019-03-24T13:05:32.241Z,35.40
2019-03-24T13:08:18.111Z,34.70
2019-03-24T13:10:50.686Z,35.60
2019-03-24T13:13:22.815Z,37.70
2019-03-24T13:15:54.899Z,38.00
2019-03-24T13:20:57.890Z,36.70
2019-03-24T13:31:02.791Z,31.60
2019-03-24T13:33:34.965Z,32.00
2019-03-24T13:41:16.074Z,34.80
2019-03-24T13:46:20.022Z,34.30
2019-03-24T13:48:52.237Z,36.80
2019-03-24T13:51:24.667Z,36.80
2019-03-24T13:53:57.110Z,37.30
2019-03-24T13:56:29.326Z,38.80
2019-03-24T14:01:32.438Z,39.50
2019-03-24T14:04:04.503Z,39.10
2019-03-24T14:06:36.518Z,39.30
2019-03-24T14:09:11.529Z,38.70
2019-03-24T14:11:43.714Z,38.10
2019-03-24T14:14:15.407Z,38.50
2019-03-24T14:16:47.743Z,37.20
2019-03-24T14:19:20.233Z,37.00
2019-03-24T14:21:52.474Z,36.50
2019-03-24T14:24:24.658Z,36.80
2019-03-24T14:29:28.257Z,33.20
2019-03-24T14:34:31.609Z,25.40
2019-03-24T14:37:03.874Z,22.90
2019-03-24T14:42:07.069Z,21.60
2019-03-24T14:44:39.055Z,23.00
2019-03-24T14:47:11.371Z,26.90
2019-03-24T14:49:43.574Z,27.20
2019-03-24T14:52:15.850Z,27.60
2019-03-24T14:54:48.113Z,29.00
2019-03-24T14:57:20.210Z,28.50
2019-03-24T15:02:23.342Z,26.30
2019-03-24T15:07:26.730Z,24.10
2019-03-24T15:09:58.761Z,23.40
2019-03-24T15:12:30.439Z,21.00
2019-03-24T15:17:34.510Z,20.40
2019-03-24T15:22:36.854Z,19.10
2019-03-24T15:25:08.654Z,17.90
2019-03-24T16:24:46.361Z,11.80
2019-03-24T16:29:49.043Z,11.50
2019-03-24T16:32:20.764Z,11.40
2019-03-24T16:35:03.901Z,11.30
2019-03-24T16:37:36.786Z,11.20
2019-03-24T16:40:08.892Z,11.10
2019-03-24T16:42:48.110Z,10.90
2019-03-24T16:45:19.785Z,10.80
2019-03-24T16:47:51.601Z,10.70
2019-03-24T16:52:54.058Z,10.60
2019-03-24T16:55:36.555Z,10.50
2019-03-24T17:03:08.907Z,10.20
2019-03-24T17:05:40.416Z,10.10
2019-03-24T17:08:12.138Z,10.10
2019-03-24T17:10:43.646Z,10.00
2019-03-24T17:13:15.125Z,9.90
2019-03-24T17:20:47.862Z,9.80
2019-03-24T17:23:19.432Z,9.80
2019-03-24T17:33:22.105Z,9.60
2019-03-24T17:38:23.966Z,9.50
2019-03-24T17:40:55.486Z,9.40
2019-03-24T17:45:58.374Z,9.50
2019-03-24T17:48:29.865Z,9.30
2019-03-24T17:51:01.442Z,9.30
2019-03-24T17:56:07.072Z,9.20
2019-03-24T17:58:38.912Z,9.20
2019-03-24T18:06:13.030Z,9.10
2019-03-24T18:08:45.144Z,9.20
2019-03-24T18:11:17.061Z,9.10
2019-03-24T18:13:49.351Z,9.10
2019-03-24T18:16:21.723Z,9.10
2019-03-24T18:18:53.518Z,9.00
2019-03-24T18:21:25.153Z,9.00
2019-03-24T18:23:56.899Z,8.90
2019-03-24T18:26:28.699Z,8.90
2019-03-24T18:29:00.498Z,8.90
2019-03-24T18:34:03.958Z,8.90
2019-03-24T18:36:35.701Z,8.90
2019-03-24T18:39:09.798Z,8.80
2019-03-24T18:41:41.682Z,8.80
2019-03-24T18:44:13.451Z,8.70
2019-03-24T18:46:45.186Z,8.70
2019-03-24T18:49:16.998Z,8.60
2019-03-24T18:51:48.818Z,8.60
2019-03-24T18:54:20.561Z,8.60
2019-03-24T18:56:52.353Z,8.50
2019-03-24T18:59:23.982Z,8.50
2019-03-24T19:04:26.181Z,8.50
2019-03-24T19:06:58.077Z,8.40
2019-03-24T19:09:29.797Z,8.40
2019-03-24T19:12:01.567Z,8.30
2019-03-24T19:14:33.341Z,8.30
2019-03-24T19:17:05.078Z,8.20
2019-03-24T19:19:37.115Z,8.10
2019-03-24T19:22:08.782Z,8.10
2019-03-24T19:24:40.602Z,8.00
2019-03-24T19:27:12.694Z,8.00
2019-03-24T19:32:15.226Z,7.80
2019-03-24T19:37:17.436Z,7.70
2019-03-24T19:39:49.275Z,7.70
2019-03-24T19:42:21.043Z,7.60
2019-03-24T19:44:52.894Z,7.50
2019-03-24T19:49:55.163Z,7.50
2019-03-24T19:52:28.354Z,7.50
2019-03-24T19:55:00.130Z,7.50
2019-03-24T19:57:32.221Z,7.40
2019-03-24T20:00:04.263Z,7.40
2019-03-24T20:02:37.562Z,7.30
2019-03-24T20:07:47.939Z,7.40
2019-03-24T20:10:13.786Z,7.40
2019-03-24T20:12:45.784Z,7.40
2019-03-24T20:15:18.174Z,7.40
2019-03-24T20:17:49.962Z,7.40
2019-03-24T20:20:21.736Z,7.40
2019-03-24T20:22:56.800Z,7.30
2019-03-24T20:25:27.102Z,7.20
2019-03-24T20:27:58.885Z,7.20
2019-03-24T20:30:30.583Z,7.20
2019-03-24T20:35:34.412Z,7.20
2019-03-24T20:38:06.554Z,7.10
2019-03-24T20:40:41.413Z,7.10
2019-03-24T20:43:13.888Z,7.00
2019-03-24T20:45:45.830Z,7.00
2019-03-24T20:50:49.709Z,6.90
2019-03-24T20:53:21.434Z,6.90
2019-03-24T20:55:53.440Z,6.80
2019-03-24T20:58:25.398Z,6.80
2019-03-24T21:03:27.652Z,6.60
2019-03-24T21:05:59.461Z,6.50
2019-03-24T21:08:31.431Z,6.40
2019-03-24T21:11:03.362Z,6.40
2019-03-24T21:13:35.343Z,6.30
2019-03-24T21:16:08.087Z,6.20
2019-03-24T21:18:41.011Z,6.10
2019-03-24T21:21:12.950Z,5.60
2019-03-24T21:23:44.830Z,5.90
2019-03-24T21:26:16.571Z,5.60
2019-03-24T21:28:48.826Z,5.50
2019-03-24T21:31:21.067Z,5.30
2019-03-24T21:33:52.839Z,5.20
2019-03-24T21:36:24.722Z,5.10
2019-03-24T21:38:56.572Z,5.00
2019-03-24T21:41:28.389Z,4.90
2019-03-24T21:44:00.266Z,4.80
2019-03-24T21:46:31.962Z,4.80
2019-03-24T21:49:03.720Z,4.60
2019-03-24T21:51:35.501Z,4.60
2019-03-24T21:54:07.228Z,4.60
2019-03-24T21:56:39.094Z,4.50
2019-03-24T21:59:10.862Z,4.50
2019-03-24T22:01:42.650Z,4.60
2019-03-24T22:04:14.262Z,4.60
2019-03-24T22:06:46.134Z,4.50
2019-03-24T22:09:17.929Z,4.50
2019-03-24T22:11:49.748Z,4.50
2019-03-24T22:14:21.553Z,4.40
2019-03-24T22:16:53.314Z,4.40
2019-03-24T22:19:25.256Z,4.30
2019-03-24T22:21:56.933Z,4.30
2019-03-24T22:24:28.774Z,4.30
2019-03-24T22:27:00.521Z,4.30
2019-03-24T22:29:32.482Z,4.30
2019-03-24T22:34:37.390Z,4.20
2019-03-24T22:37:15.841Z,4.20
2019-03-24T22:39:42.614Z,4.20
2019-03-24T22:42:14.329Z,4.10
2019-03-24T22:44:46.133Z,4.10
2019-03-24T22:47:18.874Z,4.00
2019-03-24T22:49:50.646Z,4.00
2019-03-24T22:52:26.592Z,3.80
2019-03-24T22:55:23.861Z,3.70
2019-03-24T22:57:56.366Z,3.70
2019-03-24T23:00:45.810Z,3.60
2019-03-24T23:03:17.665Z,3.60
2019-03-24T23:05:49.457Z,3.60
2019-03-24T23:08:21.390Z,3.50
2019-03-24T23:10:53.194Z,3.50
2019-03-24T23:13:24.915Z,3.50
2019-03-24T23:15:56.703Z,3.30
2019-03-24T23:18:28.438Z,3.20
2019-03-24T23:21:00.234Z,3.20
2019-03-24T23:23:31.945Z,3.20
2019-03-24T23:26:03.646Z,3.20
2019-03-24T23:28:35.473Z,3.20
2019-03-24T23:31:07.217Z,3.20
2019-03-24T23:33:39.389Z,3.10
2019-03-24T23:38:41.621Z,3.10
2019-03-24T23:41:13.446Z,3.00
2019-03-24T23:43:45.225Z,3.20
2019-03-24T23:46:17.320Z,3.20
2019-03-24T23:48:49.062Z,3.20
2019-03-24T23:51:20.790Z,3.10
2019-03-24T23:53:52.553Z,3.00
2019-03-24T23:56:24.290Z,2.80
2019-03-24T23:58:56.994Z,2.70
